Bow, Washington
Current Conditions -  °F | °C
As of 8:53 PM on Tuesday 21 Oct 2014 (Local Time) from KBLI Reporting Station
Scattered Clouds Scattered Clouds  
Wind Chill: 61°   Ceiling: Unl
Heat Index: 61°   Visibility: 10mi
Dew Point: 45°   Wind: 18mph
Humidity: 56%   Direction: 150°SSE
Pressure: 29.7"   Gusts: 35mph
Location:  48.56°N, 122.4°W
Report Text: KBLI 220353Z 15016G30KT 110V170 10SM SCT110 16/07 A2970 RMK AO2 PK WND 13038/0302 SLP064 T01610072
Loading
Personal Weather Stations






























Interactive Weather Map
Tropical Storm Tracking
New forecast layout! Learn more

10-Day Weather Forecast

Advertisements
Track Severe Weather on mobile